createdAt,value
2019-05-21T00:00:44.343Z,45.57
2019-05-21T00:03:10.967Z,45.60
2019-05-21T00:05:37.598Z,47.50
2019-05-21T00:08:04.318Z,44.13
2019-05-21T00:10:30.959Z,48.40
2019-05-21T00:12:57.675Z,43.83
2019-05-21T00:15:24.408Z,41.97
2019-05-21T00:17:51.107Z,42.77
2019-05-21T00:20:17.931Z,38.90
2019-05-21T00:23:02.970Z,43.60
2019-05-21T00:25:29.597Z,46.70
2019-05-21T00:28:15.043Z,46.83
2019-05-21T00:31:00.383Z,51.47
2019-05-21T00:33:45.820Z,55.03
2019-05-21T00:36:32.146Z,50.17
2019-05-21T00:39:17.969Z,42.37
2019-05-21T00:42:00.800Z,41.40
2019-05-21T00:44:28.706Z,37.40
2019-05-21T00:46:55.341Z,37.50
2019-05-21T00:49:22.122Z,35.70
2019-05-21T00:51:48.887Z,40.27
2019-05-21T00:54:15.678Z,40.57
2019-05-21T00:56:42.312Z,41.27
2019-05-21T00:59:08.918Z,50.37
2019-05-21T01:01:35.550Z,55.73
2019-05-21T01:04:02.283Z,61.47
2019-05-21T01:06:28.918Z,58.93
2019-05-21T01:08:55.534Z,66.67
2019-05-21T01:11:22.173Z,65.17
2019-05-21T01:13:48.905Z,63.77
2019-05-21T01:16:15.530Z,58.30
2019-05-21T01:19:00.595Z,64.33
2019-05-21T01:21:27.426Z,57.97
2019-05-21T01:23:54.074Z,59.70
2019-05-21T01:26:20.727Z,60.40
2019-05-21T01:28:47.349Z,58.80
2019-05-21T01:31:14.042Z,57.67
2019-05-21T01:33:40.763Z,60.60
2019-05-21T01:36:07.498Z,60.70
2019-05-21T01:38:34.136Z,62.47
2019-05-21T01:41:00.763Z,64.80
2019-05-21T01:43:27.395Z,64.33
2019-05-21T01:45:54.006Z,68.30
2019-05-21T01:48:20.642Z,66.93
2019-05-21T01:50:47.255Z,64.17
2019-05-21T01:53:13.886Z,64.30
2019-05-21T01:55:40.510Z,66.47
2019-05-21T01:58:07.745Z,72.67
2019-05-21T02:00:34.371Z,66.07
2019-05-21T02:03:00.978Z,67.50
2019-05-21T02:05:33.195Z,65.70
2019-05-21T02:07:56.140Z,66.87
2019-05-21T02:10:22.804Z,63.83
2019-05-21T02:13:07.922Z,67.37
2019-05-21T02:15:34.575Z,71.90
2019-05-21T02:18:01.283Z,72.17
2019-05-21T02:20:28.023Z,73.57
2019-05-21T02:22:54.660Z,74.27
2019-05-21T02:25:21.312Z,82.40
2019-05-21T02:27:47.924Z,91.57
2019-05-21T02:30:15.155Z,102.17
2019-05-21T02:32:41.775Z,101.67
2019-05-21T02:35:09.405Z,92.27
2019-05-21T02:37:36.027Z,104.03
2019-05-21T02:40:03.743Z,96.23
2019-05-21T02:42:30.370Z,98.37
2019-05-21T02:44:56.999Z,94.93
2019-05-21T02:47:23.730Z,92.93
2019-05-21T02:49:50.975Z,89.47
2019-05-21T02:52:17.604Z,84.80
2019-05-21T02:54:44.224Z,91.87
2019-05-21T02:57:10.864Z,84.43
2019-05-21T02:59:38.187Z,82.00
2019-05-21T03:02:06.707Z,77.77
2019-05-21T03:04:33.332Z,78.47
2019-05-21T03:07:18.245Z,77.27
2019-05-21T03:09:45.952Z,83.43
2019-05-21T03:12:12.672Z,83.07
2019-05-21T03:14:39.311Z,75.33
2019-05-21T03:17:06.218Z,78.30
2019-05-21T03:19:32.871Z,75.50
2019-05-21T03:21:59.495Z,77.93
2019-05-21T03:24:26.123Z,80.33
2019-05-21T03:26:52.771Z,75.47
2019-05-21T03:29:19.503Z,79.53
2019-05-21T03:31:46.112Z,69.50
2019-05-21T03:34:12.790Z,74.03
2019-05-21T03:36:39.492Z,69.70
2019-05-21T03:39:06.215Z,76.57
2019-05-21T03:41:32.856Z,70.47
2019-05-21T03:43:59.677Z,70.50
2019-05-21T03:46:26.316Z,72.43
2019-05-21T03:48:52.985Z,68.70
2019-05-21T03:51:19.607Z,67.70
2019-05-21T03:53:46.228Z,60.63
2019-05-21T03:56:12.867Z,59.83
2019-05-21T03:58:39.510Z,57.50
2019-05-21T04:01:06.162Z,53.57
2019-05-21T04:03:32.854Z,43.57
2019-05-21T04:05:59.475Z,46.40
2019-05-21T04:08:26.108Z,44.70
2019-05-21T04:10:52.976Z,44.10
2019-05-21T04:13:19.610Z,47.43
2019-05-21T04:15:53.963Z,46.67
2019-05-21T04:18:25.435Z,45.43
2019-05-21T04:20:52.074Z,50.60
2019-05-21T04:23:18.717Z,44.40
2019-05-21T04:25:45.432Z,48.03
2019-05-21T04:28:12.080Z,52.70
2019-05-21T04:30:38.716Z,48.47
2019-05-21T04:33:06.126Z,47.43
2019-05-21T04:35:32.753Z,51.83
2019-05-21T04:37:59.363Z,51.60
2019-05-21T04:40:25.999Z,47.20
2019-05-21T04:42:52.614Z,52.53
2019-05-21T04:45:19.248Z,58.40
2019-05-21T04:47:46.095Z,61.93
2019-05-21T04:50:12.832Z,61.73
2019-05-21T04:52:39.451Z,63.30
2019-05-21T04:55:06.374Z,67.87
2019-05-21T04:57:37.040Z,72.27
2019-05-21T05:00:01.742Z,79.93
2019-05-21T05:02:28.350Z,74.20
2019-05-21T05:04:55.022Z,72.63
2019-05-21T05:07:28.341Z,78.70
2019-05-21T05:09:50.170Z,78.47
2019-05-21T05:12:16.788Z,83.43
2019-05-21T05:14:43.419Z,83.27
2019-05-21T05:17:10.035Z,86.60
2019-05-21T05:19:36.718Z,79.77
2019-05-21T05:22:03.419Z,83.60
2019-05-21T05:24:30.054Z,77.17
2019-05-21T05:26:56.706Z,84.40
2019-05-21T05:29:23.326Z,83.20
2019-05-21T05:31:49.957Z,76.63
2019-05-21T05:34:16.637Z,74.03
2019-05-21T05:36:43.256Z,76.30
2019-05-21T05:39:09.903Z,72.90
2019-05-21T05:41:36.514Z,76.23
2019-05-21T05:44:03.237Z,77.97
2019-05-21T05:46:29.885Z,81.20
2019-05-21T05:49:01.790Z,73.37
2019-05-21T05:51:28.715Z,79.10
2019-05-21T05:53:58.224Z,81.83
2019-05-21T05:56:25.958Z,73.93
2019-05-21T05:58:52.670Z,72.57
2019-05-21T06:01:19.310Z,71.57
2019-05-21T06:03:45.922Z,67.40
2019-05-21T06:06:12.602Z,69.83
2019-05-21T06:08:39.563Z,68.30
2019-05-21T06:11:06.296Z,60.67
2019-05-21T06:13:33.050Z,63.90
2019-05-21T06:16:00.254Z,62.33
2019-05-21T06:18:26.890Z,59.20
2019-05-21T06:20:53.527Z,61.07
2019-05-21T06:23:20.161Z,62.97
2019-05-21T06:25:46.779Z,55.30
2019-05-21T06:28:19.284Z,44.27
2019-05-21T06:30:47.932Z,47.23
2019-05-21T06:33:14.513Z,41.63
2019-05-21T06:35:41.386Z,39.03
2019-05-21T06:38:17.192Z,35.83
2019-05-21T06:40:38.550Z,36.00
2019-05-21T06:43:07.191Z,36.97
2019-05-21T06:45:33.886Z,35.40
2019-05-21T06:48:00.495Z,37.83
2019-05-21T06:50:27.066Z,40.83
2019-05-21T06:52:53.657Z,40.93
2019-05-21T06:55:20.233Z,42.37
2019-05-21T06:57:46.845Z,51.10
2019-05-21T07:00:14.038Z,42.83
2019-05-21T07:02:40.699Z,42.10
2019-05-21T07:05:08.204Z,47.00
2019-05-21T07:07:34.920Z,48.60
2019-05-21T07:10:02.098Z,54.63
2019-05-21T07:12:28.807Z,50.83
2019-05-21T07:14:55.451Z,52.97
2019-05-21T07:17:22.078Z,51.57
2019-05-21T07:19:48.703Z,45.57
2019-05-21T07:22:15.326Z,49.17
2019-05-21T07:24:41.938Z,48.83
2019-05-21T07:27:08.567Z,46.77
2019-05-21T07:29:35.287Z,46.30
2019-05-21T07:32:02.013Z,49.50
2019-05-21T07:34:28.756Z,50.30
2019-05-21T07:36:55.383Z,44.90
2019-05-21T07:39:21.986Z,44.93
2019-05-21T07:41:48.669Z,44.80
2019-05-21T07:44:15.383Z,44.90
2019-05-21T07:46:42.027Z,45.27
2019-05-21T07:49:08.747Z,47.90
2019-05-21T07:51:35.394Z,49.90
2019-05-21T07:54:02.016Z,44.87
2019-05-21T07:56:28.930Z,44.43
2019-05-21T07:58:55.564Z,42.03
2019-05-21T08:01:22.291Z,41.53
2019-05-21T08:03:48.938Z,37.63
2019-05-21T08:06:15.570Z,39.43
2019-05-21T08:08:42.212Z,40.67
2019-05-21T08:11:08.922Z,42.17
2019-05-21T08:13:35.563Z,42.87
2019-05-21T08:16:02.382Z,41.03
2019-05-21T08:18:29.018Z,42.33
2019-05-21T08:20:55.646Z,46.50
2019-05-21T08:23:22.271Z,46.23
2019-05-21T08:25:49.143Z,42.67
2019-05-21T08:28:15.777Z,46.83
2019-05-21T08:30:42.389Z,44.77
2019-05-21T08:33:09.127Z,43.37
2019-05-21T08:35:35.747Z,47.23
2019-05-21T08:38:06.335Z,46.70
2019-05-21T08:40:31.082Z,51.83
2019-05-21T08:42:57.715Z,48.33
2019-05-21T08:45:25.344Z,50.67
2019-05-21T08:47:51.982Z,44.30
2019-05-21T08:50:18.635Z,46.67
2019-05-21T08:52:45.477Z,45.03
2019-05-21T08:55:12.764Z,45.23
2019-05-21T08:57:39.504Z,50.63
2019-05-21T09:00:07.345Z,46.70
2019-05-21T09:02:34.064Z,48.97
2019-05-21T09:05:00.708Z,45.03
2019-05-21T09:07:27.324Z,44.93
2019-05-21T09:09:53.947Z,45.63
2019-05-21T09:12:20.678Z,45.60
2019-05-21T09:14:47.311Z,40.87
2019-05-21T09:17:13.939Z,41.70
2019-05-21T09:19:59.411Z,38.47
2019-05-21T09:22:26.035Z,37.83
2019-05-21T09:24:52.776Z,36.83
2019-05-21T09:27:19.703Z,45.77
2019-05-21T09:29:46.336Z,41.40
2019-05-21T09:32:13.147Z,41.70
2019-05-21T09:34:48.689Z,47.10
2019-05-21T09:37:19.255Z,44.10
2019-05-21T09:39:36.956Z,43.70
2019-05-21T09:42:03.681Z,44.30
2019-05-21T09:44:30.379Z,48.23
2019-05-21T09:46:57.015Z,51.77
2019-05-21T09:49:23.635Z,50.13
2019-05-21T09:51:50.319Z,52.47
2019-05-21T09:54:16.995Z,55.67
2019-05-21T09:56:43.611Z,56.70
2019-05-21T09:59:21.727Z,60.77
2019-05-21T10:01:50.292Z,62.10
2019-05-21T10:04:16.924Z,60.40
2019-05-21T10:06:43.739Z,56.93
2019-05-21T10:09:12.263Z,65.87
2019-05-21T10:11:38.892Z,56.97
2019-05-21T10:14:05.502Z,56.37
2019-05-21T10:16:32.439Z,48.73
2019-05-21T10:18:59.255Z,42.67
2019-05-21T10:21:25.995Z,44.60
2019-05-21T10:23:53.358Z,38.57
2019-05-21T10:26:20.003Z,38.83
2019-05-21T10:28:46.619Z,39.50
2019-05-21T10:31:13.256Z,44.70
2019-05-21T10:33:39.865Z,141.53
2019-05-21T10:36:07.043Z,40.60
2019-05-21T10:38:33.663Z,39.53
2019-05-21T10:41:00.300Z,39.37
2019-05-21T10:43:26.921Z,41.13
2019-05-21T10:45:53.554Z,37.33
2019-05-21T10:48:20.172Z,35.03
2019-05-21T10:50:46.802Z,36.23
2019-05-21T10:53:13.858Z,32.27
2019-05-21T10:55:40.595Z,33.57
2019-05-21T10:58:07.210Z,37.53
2019-05-21T11:00:34.855Z,36.77
2019-05-21T11:03:12.298Z,37.07
2019-05-21T11:05:40.906Z,36.67
2019-05-21T11:08:24.782Z,36.03
2019-05-21T11:10:36.147Z,38.10
2019-05-21T11:13:03.810Z,34.53
2019-05-21T11:15:30.822Z,34.13
2019-05-21T11:18:09.749Z,36.90
2019-05-21T11:20:26.105Z,36.07
2019-05-21T11:22:52.891Z,37.57
2019-05-21T11:25:19.583Z,44.63
2019-05-21T11:27:46.315Z,42.63
2019-05-21T11:30:13.031Z,41.03
2019-05-21T11:32:39.666Z,41.83
2019-05-21T11:35:06.483Z,40.53
2019-05-21T11:37:33.776Z,38.17
2019-05-21T11:40:00.389Z,43.47
2019-05-21T11:42:27.211Z,35.97
2019-05-21T11:44:53.822Z,39.57
2019-05-21T11:47:20.459Z,43.30
2019-05-21T11:49:47.082Z,39.57
2019-05-21T11:52:13.707Z,38.30
2019-05-21T11:54:40.850Z,36.77
2019-05-21T11:57:07.474Z,43.30
2019-05-21T11:59:34.116Z,42.27
2019-05-21T12:02:00.791Z,39.50
2019-05-21T12:04:27.513Z,38.80
2019-05-21T12:06:54.399Z,40.37
2019-05-21T12:09:21.035Z,41.07
2019-05-21T12:11:47.672Z,39.93
2019-05-21T12:14:14.301Z,40.47
2019-05-21T12:16:40.910Z,39.23
2019-05-21T12:19:08.407Z,38.27
2019-05-21T12:21:35.506Z,35.80
2019-05-21T12:24:02.143Z,32.30
2019-05-21T12:26:28.940Z,33.03
2019-05-21T12:28:55.722Z,37.20
2019-05-21T12:31:22.419Z,35.00
2019-05-21T12:33:49.069Z,37.23
2019-05-21T12:36:15.770Z,32.43
2019-05-21T12:38:42.391Z,34.40
2019-05-21T12:41:13.504Z,31.53
2019-05-21T12:43:38.808Z,35.90
2019-05-21T12:46:05.812Z,36.90
2019-05-21T12:48:32.475Z,37.73
2019-05-21T12:50:59.181Z,35.77
2019-05-21T12:53:25.799Z,34.70
2019-05-21T12:55:52.442Z,36.07
2019-05-21T12:58:20.008Z,32.50
2019-05-21T13:00:52.263Z,32.33
2019-05-21T13:03:21.557Z,34.30
2019-05-21T13:05:48.195Z,38.53
2019-05-21T13:08:14.947Z,34.67
2019-05-21T13:10:42.083Z,38.33
2019-05-21T13:13:08.692Z,34.03
2019-05-21T13:15:35.325Z,35.80
2019-05-21T13:18:02.231Z,34.47
2019-05-21T13:20:28.855Z,38.33
2019-05-21T13:22:55.503Z,37.70
2019-05-21T13:25:22.116Z,38.90
2019-05-21T13:27:48.747Z,41.93
2019-05-21T13:30:17.272Z,44.00
2019-05-21T13:32:44.062Z,40.93
2019-05-21T13:35:11.936Z,42.57
2019-05-21T13:37:38.867Z,42.13
2019-05-21T13:40:06.705Z,40.17
2019-05-21T13:42:33.432Z,42.87
2019-05-21T13:45:00.049Z,40.67
2019-05-21T13:47:26.687Z,37.83
2019-05-21T13:49:53.298Z,36.80
2019-05-21T13:52:19.923Z,36.57
2019-05-21T13:54:46.659Z,36.30
2019-05-21T13:57:13.280Z,35.43
2019-05-21T13:59:39.929Z,36.47
2019-05-21T14:02:08.582Z,38.70
2019-05-21T14:04:35.345Z,39.33
2019-05-21T14:07:06.957Z,42.33
2019-05-21T14:09:34.482Z,39.73
2019-05-21T14:12:01.396Z,39.60
2019-05-21T14:14:28.516Z,47.87
2019-05-21T14:16:55.361Z,42.70
2019-05-21T14:19:22.099Z,40.23
2019-05-21T14:21:48.709Z,39.67
2019-05-21T14:24:15.451Z,39.10
2019-05-21T14:26:42.859Z,43.27
2019-05-21T14:29:09.768Z,38.33
2019-05-21T14:31:36.600Z,38.90
2019-05-21T14:34:03.760Z,36.67
2019-05-21T14:36:30.611Z,38.10
2019-05-21T14:38:57.241Z,34.17
2019-05-21T14:41:23.871Z,32.37
2019-05-21T14:43:50.478Z,33.03
2019-05-21T14:46:17.237Z,31.67
2019-05-21T14:48:43.851Z,32.07
2019-05-21T14:51:13.433Z,30.57
2019-05-21T14:53:40.372Z,31.50
2019-05-21T14:56:07.400Z,30.27
2019-05-21T14:58:34.110Z,31.93
2019-05-21T15:01:00.766Z,28.40
2019-05-21T15:03:29.445Z,31.20
2019-05-21T15:05:56.007Z,33.50
2019-05-21T15:08:22.803Z,30.87
2019-05-21T15:10:49.857Z,29.97
2019-05-21T15:13:17.755Z,30.33
2019-05-21T15:15:44.405Z,35.03
2019-05-21T15:18:16.402Z,31.53
2019-05-21T15:20:44.467Z,32.60
2019-05-21T15:23:11.258Z,34.53
2019-05-21T15:25:37.873Z,33.10
2019-05-21T15:28:04.508Z,31.63
2019-05-21T15:30:31.236Z,37.07
2019-05-21T15:32:57.874Z,32.67
2019-05-21T15:35:24.557Z,32.30
2019-05-21T15:37:51.179Z,32.10
2019-05-21T15:40:18.033Z,33.23
2019-05-21T15:42:44.675Z,31.63
2019-05-21T15:45:11.462Z,33.47
2019-05-21T15:47:38.310Z,32.50
2019-05-21T15:50:05.203Z,31.33
2019-05-21T15:52:31.855Z,33.83
2019-05-21T15:54:58.484Z,31.77
2019-05-21T15:57:25.131Z,31.40
2019-05-21T15:59:51.752Z,32.73
2019-05-21T16:02:18.405Z,33.23
2019-05-21T16:04:45.147Z,35.40
2019-05-21T16:07:11.898Z,36.80
2019-05-21T16:09:38.611Z,33.17
2019-05-21T16:12:05.250Z,30.73
2019-05-21T16:14:31.903Z,33.43
2019-05-21T16:16:58.543Z,31.73
2019-05-21T16:19:25.301Z,33.73
2019-05-21T16:21:51.906Z,32.57
2019-05-21T16:24:19.447Z,34.90
2019-05-21T16:26:46.154Z,36.17
2019-05-21T16:29:12.796Z,32.77
2019-05-21T16:31:39.411Z,32.70
2019-05-21T16:34:07.255Z,34.30
2019-05-21T16:36:34.983Z,43.67
2019-05-21T16:39:03.882Z,41.50
2019-05-21T16:41:43.671Z,37.53
2019-05-21T16:43:59.105Z,39.10
2019-05-21T16:46:25.847Z,40.97
2019-05-21T16:48:52.503Z,41.47
2019-05-21T16:51:19.132Z,42.40
2019-05-21T16:53:45.742Z,41.47
2019-05-21T16:56:12.375Z,43.03
2019-05-21T16:58:39.093Z,46.57
2019-05-21T17:01:07.631Z,47.13
2019-05-21T17:03:36.531Z,45.87
2019-05-21T17:06:03.082Z,49.20
2019-05-21T17:08:29.729Z,47.23
2019-05-21T17:10:56.464Z,47.40
2019-05-21T17:13:23.514Z,46.00
2019-05-21T17:15:50.152Z,45.40
2019-05-21T17:18:17.075Z,46.33
2019-05-21T17:20:43.694Z,44.40
2019-05-21T17:23:10.460Z,46.23
2019-05-21T17:25:37.070Z,50.23
2019-05-21T17:28:03.811Z,139.33
2019-05-21T17:30:30.430Z,54.40
2019-05-21T17:32:57.167Z,50.00
2019-05-21T17:35:23.774Z,49.83
2019-05-21T17:37:50.447Z,50.20
2019-05-21T17:40:17.202Z,42.97
2019-05-21T17:42:43.847Z,42.47
2019-05-21T17:45:10.654Z,40.20
2019-05-21T17:47:37.299Z,40.10
2019-05-21T17:50:04.664Z,37.60
2019-05-21T17:52:31.634Z,40.37
2019-05-21T17:54:58.253Z,34.77
2019-05-21T17:57:25.298Z,38.70
2019-05-21T17:59:51.907Z,36.60
2019-05-21T18:02:19.043Z,40.10
2019-05-21T18:05:05.086Z,37.73
2019-05-21T18:07:32.120Z,36.83
2019-05-21T18:09:58.837Z,36.27
2019-05-21T18:12:31.985Z,34.60
2019-05-21T18:14:55.798Z,31.20
2019-05-21T18:17:24.349Z,34.37
2019-05-21T18:19:52.767Z,35.63
2019-05-21T18:22:21.793Z,33.60
2019-05-21T18:24:49.281Z,34.67
2019-05-21T18:27:16.509Z,31.10
2019-05-21T18:29:43.242Z,32.30
2019-05-21T18:32:10.163Z,110.03
2019-05-21T18:34:39.991Z,42.20
2019-05-21T18:37:06.768Z,38.70
2019-05-21T18:39:33.860Z,31.03
2019-05-21T18:42:00.703Z,28.37
2019-05-21T18:44:27.591Z,25.20
2019-05-21T18:46:54.307Z,26.17
2019-05-21T18:49:20.959Z,24.90
2019-05-21T18:51:47.575Z,22.73
2019-05-21T18:54:14.323Z,21.47
2019-05-21T18:56:41.496Z,23.33
2019-05-21T18:59:08.422Z,20.73
2019-05-21T19:01:38.324Z,22.70
2019-05-21T19:04:03.784Z,37.60
2019-05-21T19:06:30.411Z,60.37
2019-05-21T19:08:57.278Z,28.10
2019-05-21T19:11:24.012Z,20.53
2019-05-21T19:13:50.730Z,20.37
2019-05-21T19:16:17.376Z,20.77
2019-05-21T19:18:43.998Z,22.87
2019-05-21T19:21:10.643Z,22.27
2019-05-21T19:23:37.362Z,26.03
2019-05-21T19:26:05.116Z,19.90
2019-05-21T19:28:31.730Z,20.97
2019-05-21T19:30:58.366Z,20.17
2019-05-21T19:33:25.011Z,25.57
2019-05-21T19:35:51.848Z,19.23
2019-05-21T19:38:18.555Z,21.33
2019-05-21T19:40:45.276Z,23.90
2019-05-21T19:43:12.111Z,24.23
2019-05-21T19:45:38.927Z,19.27
2019-05-21T19:48:05.659Z,21.23
2019-05-21T19:50:32.998Z,19.17
2019-05-21T19:52:59.709Z,22.30
2019-05-21T19:55:27.067Z,17.43
2019-05-21T19:57:53.803Z,23.30
2019-05-21T20:00:21.314Z,17.80
2019-05-21T20:02:48.745Z,19.03
2019-05-21T20:05:15.777Z,14.87
2019-05-21T20:07:43.282Z,17.40
2019-05-21T20:10:10.993Z,15.70
2019-05-21T20:12:37.807Z,17.03
2019-05-21T20:15:08.042Z,19.40
2019-05-21T20:17:35.058Z,13.30
2019-05-21T20:20:03.414Z,15.60
2019-05-21T20:22:31.142Z,15.20
2019-05-21T20:24:57.974Z,13.07
2019-05-21T20:27:25.311Z,15.47
2019-05-21T20:29:52.542Z,13.93
2019-05-21T20:32:20.867Z,16.93
2019-05-21T20:34:50.893Z,12.40
2019-05-21T20:37:18.838Z,13.73
2019-05-21T20:39:47.179Z,12.87
2019-05-21T20:42:17.839Z,12.50
2019-05-21T20:44:45.430Z,17.57
2019-05-21T20:47:12.749Z,14.80
2019-05-21T20:49:39.903Z,15.40
2019-05-21T20:52:18.032Z,15.67
2019-05-21T20:54:56.554Z,14.13
2019-05-21T20:57:23.699Z,18.23
2019-05-21T20:59:50.472Z,14.53
2019-05-21T21:02:17.295Z,13.50
2019-05-21T21:04:44.507Z,14.13
2019-05-21T21:07:12.147Z,16.47
2019-05-21T21:09:39.158Z,13.80
2019-05-21T21:12:07.999Z,14.07
2019-05-21T21:14:35.925Z,14.53
2019-05-21T21:17:04.562Z,13.13
2019-05-21T21:19:31.703Z,16.73
2019-05-21T21:21:58.358Z,16.23
2019-05-21T21:24:25.090Z,16.70
2019-05-21T21:26:51.714Z,17.83
2019-05-21T21:29:18.703Z,20.17
2019-05-21T21:31:45.533Z,17.17
2019-05-21T21:34:13.049Z,19.33
2019-05-21T21:36:40.191Z,21.67
2019-05-21T21:39:07.258Z,22.57
2019-05-21T21:41:34.286Z,20.03
2019-05-21T21:44:01.466Z,21.97
2019-05-21T21:46:28.318Z,24.50
2019-05-21T21:48:56.067Z,23.47
2019-05-21T21:51:22.694Z,24.17
2019-05-21T21:53:49.532Z,24.33
2019-05-21T21:56:16.651Z,24.60
2019-05-21T21:58:43.272Z,27.03
2019-05-21T22:01:13.738Z,25.43
2019-05-21T22:03:42.671Z,27.30
2019-05-21T22:06:09.694Z,28.93
2019-05-21T22:08:36.438Z,28.97
2019-05-21T22:11:03.369Z,27.20
2019-05-21T22:13:30.007Z,28.93
2019-05-21T22:15:57.490Z,30.27
2019-05-21T22:18:24.751Z,28.70
2019-05-21T22:20:51.664Z,30.33
2019-05-21T22:23:18.298Z,32.20
2019-05-21T22:25:45.536Z,32.93
2019-05-21T22:28:12.487Z,32.13
2019-05-21T22:30:39.198Z,33.00
2019-05-21T22:33:06.430Z,34.50
2019-05-21T22:35:33.239Z,34.37
2019-05-21T22:37:59.893Z,33.77
2019-05-21T22:40:26.723Z,36.30
2019-05-21T22:42:53.351Z,35.97
2019-05-21T22:45:19.970Z,40.13
2019-05-21T22:47:46.611Z,37.60
2019-05-21T22:50:14.024Z,36.00
2019-05-21T22:52:40.667Z,39.10
2019-05-21T22:55:07.687Z,39.10
2019-05-21T22:57:34.567Z,44.50
2019-05-21T23:00:01.356Z,42.73
2019-05-21T23:02:30.248Z,42.23
2019-05-21T23:04:57.051Z,43.37
2019-05-21T23:07:23.690Z,45.10
2019-05-21T23:09:50.501Z,46.43
2019-05-21T23:12:18.563Z,41.97
2019-05-21T23:14:45.185Z,43.60
2019-05-21T23:17:12.071Z,42.53
2019-05-21T23:19:38.992Z,42.67
2019-05-21T23:22:06.206Z,47.03
2019-05-21T23:24:33.659Z,39.47
2019-05-21T23:27:01.490Z,43.30
2019-05-21T23:29:28.119Z,42.97
2019-05-21T23:31:54.737Z,38.70
2019-05-21T23:34:22.074Z,41.83
2019-05-21T23:36:48.683Z,34.10
2019-05-21T23:39:17.226Z,35.47
2019-05-21T23:41:44.962Z,34.47
2019-05-21T23:44:12.199Z,34.13
2019-05-21T23:46:38.830Z,33.63
2019-05-21T23:49:05.766Z,34.43
2019-05-21T23:51:33.172Z,31.67
2019-05-21T23:54:00.598Z,32.17
2019-05-21T23:56:27.219Z,30.63
2019-05-21T23:58:54.569Z,34.07
